sensor_id;sensor_type;location;lat;lon;timestamp;P1;durP1;ratioP1;P2;durP2;ratioP2
23722;SDS011;12042;52.136;5.584;2023-03-01T07:12:59;28.25;;;17.50;;
23722;SDS011;12042;52.136;5.584;2023-03-01T07:15:25;28.58;;;17.63;;
23722;SDS011;12042;52.136;5.584;2023-03-01T07:17:51;27.88;;;17.50;;
23722;SDS011;12042;52.136;5.584;2023-03-01T07:20:19;30.90;;;17.80;;
23722;SDS011;12042;52.136;5.584;2023-03-01T07:22:50;29.38;;;17.15;;
23722;SDS011;12042;52.136;5.584;2023-03-01T07:25:19;33.63;;;16.77;;
23722;SDS011;12042;52.136;5.584;2023-03-01T07:27:48;32.72;;;17.50;;
23722;SDS011;12042;52.136;5.584;2023-03-01T07:30:16;27.27;;;15.85;;
23722;SDS011;12042;52.136;5.584;2023-03-01T07:32:41;28.00;;;16.27;;
23722;SDS011;12042;52.136;5.584;2023-03-01T07:35:07;28.85;;;17.40;;
23722;SDS011;12042;52.136;5.584;2023-03-01T07:37:33;26.77;;;16.67;;
23722;SDS011;12042;52.136;5.584;2023-03-01T07:39:58;22.95;;;15.00;;
23722;SDS011;12042;52.136;5.584;2023-03-01T07:42:24;27.08;;;15.07;;
23722;SDS011;12042;52.136;5.584;2023-03-01T07:44:49;23.73;;;15.13;;
23722;SDS011;12042;52.136;5.584;2023-03-01T07:47:15;22.90;;;14.82;;
23722;SDS011;12042;52.136;5.584;2023-03-01T07:49:41;22.42;;;14.20;;
23722;SDS011;12042;52.136;5.584;2023-03-01T07:52:06;20.75;;;14.25;;
23722;SDS011;12042;52.136;5.584;2023-03-01T07:54:34;27.52;;;14.18;;
23722;SDS011;12042;52.136;5.584;2023-03-01T07:56:59;25.63;;;16.35;;
23722;SDS011;12042;52.136;5.584;2023-03-01T07:59:25;24.60;;;15.30;;
23722;SDS011;12042;52.136;5.584;2023-03-01T08:01:54;24.42;;;14.75;;
23722;SDS011;12042;52.136;5.584;2023-03-01T08:04:20;24.10;;;14.07;;
23722;SDS011;12042;52.136;5.584;2023-03-01T08:06:47;24.73;;;13.32;;
23722;SDS011;12042;52.136;5.584;2023-03-01T08:09:12;21.83;;;13.38;;
23722;SDS011;12042;52.136;5.584;2023-03-01T08:11:38;27.58;;;12.40;;
23722;SDS011;12042;52.136;5.584;2023-03-01T08:14:04;18.85;;;11.38;;
23722;SDS011;12042;52.136;5.584;2023-03-01T08:16:30;15.68;;;11.95;;
23722;SDS011;12042;52.136;5.584;2023-03-01T08:19:02;17.48;;;11.40;;
23722;SDS011;12042;52.136;5.584;2023-03-01T08:21:37;16.70;;;11.50;;
23722;SDS011;12042;52.136;5.584;2023-03-01T08:24:04;19.38;;;10.73;;
23722;SDS011;12042;52.136;5.584;2023-03-01T08:26:31;14.70;;;11.15;;
23722;SDS011;12042;52.136;5.584;2023-03-01T08:28:58;18.60;;;11.55;;
23722;SDS011;12042;52.136;5.584;2023-03-01T08:31:26;21.83;;;12.63;;
23722;SDS011;12042;52.136;5.584;2023-03-01T08:33:56;19.20;;;12.77;;
23722;SDS011;12042;52.136;5.584;2023-03-01T08:36:25;22.52;;;11.98;;
23722;SDS011;12042;52.136;5.584;2023-03-01T08:38:52;21.63;;;12.52;;
23722;SDS011;12042;52.136;5.584;2023-03-01T08:41:18;22.75;;;12.93;;
23722;SDS011;12042;52.136;5.584;2023-03-01T08:43:44;20.88;;;13.05;;
23722;SDS011;12042;52.136;5.584;2023-03-01T08:46:10;20.77;;;12.80;;
23722;SDS011;12042;52.136;5.584;2023-03-01T08:48:36;18.35;;;10.77;;
23722;SDS011;12042;52.136;5.584;2023-03-01T08:51:09;16.38;;;10.70;;
23722;SDS011;12042;52.136;5.584;2023-03-01T08:53:36;14.60;;;9.65;;
23722;SDS011;12042;52.136;5.584;2023-03-01T08:56:01;15.55;;;9.65;;
23722;SDS011;12042;52.136;5.584;2023-03-01T08:58:30;13.68;;;9.48;;
23722;SDS011;12042;52.136;5.584;2023-03-01T09:00:56;17.27;;;10.07;;
23722;SDS011;12042;52.136;5.584;2023-03-01T09:03:22;14.80;;;9.82;;
23722;SDS011;12042;52.136;5.584;2023-03-01T09:05:48;13.32;;;10.18;;
23722;SDS011;12042;52.136;5.584;2023-03-01T09:08:15;13.43;;;9.57;;
23722;SDS011;12042;52.136;5.584;2023-03-01T09:10:44;12.77;;;8.70;;
23722;SDS011;12042;52.136;5.584;2023-03-01T09:13:10;10.38;;;8.38;;
23722;SDS011;12042;52.136;5.584;2023-03-01T09:15:36;10.05;;;8.60;;
23722;SDS011;12042;52.136;5.584;2023-03-01T09:18:04;9.77;;;8.73;;
23722;SDS011;12042;52.136;5.584;2023-03-01T09:20:31;15.80;;;8.43;;
23722;SDS011;12042;52.136;5.584;2023-03-01T09:22:57;11.20;;;8.43;;
23722;SDS011;12042;52.136;5.584;2023-03-01T09:25:23;9.43;;;6.95;;
23722;SDS011;12042;52.136;5.584;2023-03-01T09:27:52;9.48;;;7.38;;
23722;SDS011;12042;52.136;5.584;2023-03-01T09:30:18;11.07;;;7.50;;
23722;SDS011;12042;52.136;5.584;2023-03-01T09:32:45;11.88;;;6.60;;
23722;SDS011;12042;52.136;5.584;2023-03-01T09:35:11;9.55;;;6.68;;
23722;SDS011;12042;52.136;5.584;2023-03-01T09:37:37;9.90;;;6.78;;
23722;SDS011;12042;52.136;5.584;2023-03-01T09:40:03;8.45;;;6.47;;
23722;SDS011;12042;52.136;5.584;2023-03-01T09:42:32;9.95;;;6.63;;
23722;SDS011;12042;52.136;5.584;2023-03-01T09:45:06;7.47;;;6.35;;
23722;SDS011;12042;52.136;5.584;2023-03-01T09:47:40;7.35;;;6.28;;
23722;SDS011;12042;52.136;5.584;2023-03-01T09:52:54;7.05;;;5.78;;
23722;SDS011;12042;52.136;5.584;2023-03-01T09:55:30;8.80;;;5.50;;
23722;SDS011;12042;52.136;5.584;2023-03-01T09:58:13;10.23;;;5.70;;
23722;SDS011;12042;52.136;5.584;2023-03-01T10:01:30;6.40;;;5.30;;
23722;SDS011;12042;52.136;5.584;2023-03-01T10:04:11;5.97;;;4.85;;
23722;SDS011;12042;52.136;5.584;2023-03-01T10:06:38;4.65;;;4.25;;
23722;SDS011;12042;52.136;5.584;2023-03-01T10:09:15;4.70;;;4.30;;
23722;SDS011;12042;52.136;5.584;2023-03-01T10:11:47;5.22;;;4.38;;
23722;SDS011;12042;52.136;5.584;2023-03-01T10:17:01;5.93;;;4.50;;
23722;SDS011;12042;52.136;5.584;2023-03-01T10:19:44;4.95;;;4.35;;
23722;SDS011;12042;52.136;5.584;2023-03-01T10:22:21;5.72;;;4.65;;
23722;SDS011;12042;52.136;5.584;2023-03-01T10:24:56;4.35;;;3.95;;
23722;SDS011;12042;52.136;5.584;2023-03-01T10:27:25;5.60;;;4.45;;
23722;SDS011;12042;52.136;5.584;2023-03-01T10:30:06;4.55;;;4.20;;
23722;SDS011;12042;52.136;5.584;2023-03-01T10:32:45;4.45;;;3.85;;
23722;SDS011;12042;52.136;5.584;2023-03-01T10:35:18;4.60;;;4.15;;
23722;SDS011;12042;52.136;5.584;2023-03-01T10:37:58;4.70;;;4.30;;
23722;SDS011;12042;52.136;5.584;2023-03-01T10:40:32;4.55;;;3.30;;
23722;SDS011;12042;52.136;5.584;2023-03-01T10:42:59;3.72;;;3.40;;
23722;SDS011;12042;52.136;5.584;2023-03-01T10:45:31;3.88;;;3.03;;
23722;SDS011;12042;52.136;5.584;2023-03-01T10:48:04;5.63;;;3.83;;
23722;SDS011;12042;52.136;5.584;2023-03-01T10:50:43;3.80;;;3.50;;
23722;SDS011;12042;52.136;5.584;2023-03-01T10:58:34;3.60;;;3.30;;
23722;SDS011;12042;52.136;5.584;2023-03-01T11:01:06;6.55;;;3.92;;
23722;SDS011;12042;52.136;5.584;2023-03-01T11:03:41;4.35;;;3.60;;
23722;SDS011;12042;52.136;5.584;2023-03-01T11:13:55;4.45;;;3.90;;
23722;SDS011;12042;52.136;5.584;2023-03-01T11:16:28;4.28;;;3.88;;
23722;SDS011;12042;52.136;5.584;2023-03-01T11:19:01;4.68;;;4.28;;
23722;SDS011;12042;52.136;5.584;2023-03-01T11:21:29;4.82;;;4.18;;
23722;SDS011;12042;52.136;5.584;2023-03-01T11:23:59;5.20;;;4.80;;
23722;SDS011;12042;52.136;5.584;2023-03-01T11:26:26;5.15;;;4.63;;
23722;SDS011;12042;52.136;5.584;2023-03-01T11:28:53;4.72;;;4.40;;
23722;SDS011;12042;52.136;5.584;2023-03-01T11:31:23;5.22;;;4.72;;
23722;SDS011;12042;52.136;5.584;2023-03-01T11:44:42;4.40;;;4.00;;
23722;SDS011;12042;52.136;5.584;2023-03-01T11:52:31;4.75;;;4.32;;
23722;SDS011;12042;52.136;5.584;2023-03-01T12:14:59;3.72;;;3.42;;
23722;SDS011;12042;52.136;5.584;2023-03-01T12:18:03;7.15;;;3.90;;
23722;SDS011;12042;52.136;5.584;2023-03-01T12:20:46;5.88;;;3.95;;
23722;SDS011;12042;52.136;5.584;2023-03-01T12:29:42;5.80;;;4.03;;
23722;SDS011;12042;52.136;5.584;2023-03-01T12:35:06;4.47;;;3.92;;
23722;SDS011;12042;52.136;5.584;2023-03-01T12:51:03;4.75;;;4.30;;
23722;SDS011;12042;52.136;5.584;2023-03-01T12:53:39;6.28;;;4.15;;
23722;SDS011;12042;52.136;5.584;2023-03-01T12:56:19;6.43;;;4.43;;
23722;SDS011;12042;52.136;5.584;2023-03-01T13:02:05;4.97;;;3.38;;
23722;SDS011;12042;52.136;5.584;2023-03-01T13:08:01;5.85;;;3.95;;
23722;SDS011;12042;52.136;5.584;2023-03-01T13:10:48;4.05;;;3.70;;
23722;SDS011;12042;52.136;5.584;2023-03-01T13:13:23;5.22;;;4.13;;
23722;SDS011;12042;52.136;5.584;2023-03-01T13:15:50;3.88;;;3.55;;
23722;SDS011;12042;52.136;5.584;2023-03-01T13:31:10;4.47;;;4.00;;
23722;SDS011;12042;52.136;5.584;2023-03-01T13:33:59;4.88;;;4.07;;
23722;SDS011;12042;52.136;5.584;2023-03-01T13:42:25;4.00;;;3.70;;
23722;SDS011;12042;52.136;5.584;2023-03-01T13:45:05;4.47;;;4.05;;
23722;SDS011;12042;52.136;5.584;2023-03-01T13:47:58;4.32;;;3.92;;
23722;SDS011;12042;52.136;5.584;2023-03-01T13:50:36;4.35;;;3.92;;
23722;SDS011;12042;52.136;5.584;2023-03-01T13:53:10;3.95;;;3.65;;
23722;SDS011;12042;52.136;5.584;2023-03-01T13:55:42;3.47;;;3.25;;
23722;SDS011;12042;52.136;5.584;2023-03-01T14:00:54;4.10;;;3.70;;
23722;SDS011;12042;52.136;5.584;2023-03-01T14:03:21;4.22;;;3.83;;
23722;SDS011;12042;52.136;5.584;2023-03-01T14:06:06;8.50;;;3.65;;
23722;SDS011;12042;52.136;5.584;2023-03-01T14:08:42;5.05;;;4.20;;
23722;SDS011;12042;52.136;5.584;2023-03-01T14:16:46;4.25;;;3.70;;
23722;SDS011;12042;52.136;5.584;2023-03-01T14:19:21;4.05;;;3.65;;
23722;SDS011;12042;52.136;5.584;2023-03-01T14:27:23;4.32;;;3.92;;
23722;SDS011;12042;52.136;5.584;2023-03-01T14:30:11;4.10;;;3.70;;
23722;SDS011;12042;52.136;5.584;2023-03-01T14:32:40;4.70;;;4.00;;
23722;SDS011;12042;52.136;5.584;2023-03-01T14:35:20;4.00;;;3.70;;
23722;SDS011;12042;52.136;5.584;2023-03-01T14:37:47;4.88;;;4.00;;
23722;SDS011;12042;52.136;5.584;2023-03-01T14:40:25;5.15;;;4.10;;
23722;SDS011;12042;52.136;5.584;2023-03-01T14:42:51;4.20;;;3.80;;
23722;SDS011;12042;52.136;5.584;2023-03-01T14:45:18;6.10;;;4.80;;
23722;SDS011;12042;52.136;5.584;2023-03-01T14:47:45;4.70;;;4.18;;
23722;SDS011;12042;52.136;5.584;2023-03-01T14:52:46;4.70;;;4.05;;
23722;SDS011;12042;52.136;5.584;2023-03-01T14:55:17;4.35;;;3.90;;
23722;SDS011;12042;52.136;5.584;2023-03-01T14:57:50;4.50;;;4.13;;
23722;SDS011;12042;52.136;5.584;2023-03-01T15:00:23;4.28;;;3.97;;
23722;SDS011;12042;52.136;5.584;2023-03-01T15:02:52;4.85;;;4.40;;
23722;SDS011;12042;52.136;5.584;2023-03-01T15:05:25;4.45;;;4.05;;
23722;SDS011;12042;52.136;5.584;2023-03-01T15:07:57;4.63;;;3.90;;
23722;SDS011;12042;52.136;5.584;2023-03-01T15:10:26;4.30;;;3.90;;
23722;SDS011;12042;52.136;5.584;2023-03-01T15:12:55;4.30;;;3.90;;
23722;SDS011;12042;52.136;5.584;2023-03-01T15:17:58;4.22;;;3.83;;
23722;SDS011;12042;52.136;5.584;2023-03-01T15:20:45;4.40;;;4.00;;
23722;SDS011;12042;52.136;5.584;2023-03-01T15:23:30;4.50;;;4.13;;
23722;SDS011;12042;52.136;5.584;2023-03-01T15:25:56;4.22;;;3.83;;
23722;SDS011;12042;52.136;5.584;2023-03-01T15:28:26;4.03;;;3.70;;
23722;SDS011;12042;52.136;5.584;2023-03-01T15:31:40;4.03;;;3.45;;
23722;SDS011;12042;52.136;5.584;2023-03-01T15:33:47;4.15;;;3.85;;
23722;SDS011;12042;52.136;5.584;2023-03-01T15:39:00;4.10;;;3.70;;
23722;SDS011;12042;52.136;5.584;2023-03-01T15:41:30;5.63;;;4.10;;
23722;SDS011;12042;52.136;5.584;2023-03-01T15:43:58;6.28;;;4.43;;
23722;SDS011;12042;52.136;5.584;2023-03-01T15:48:57;4.50;;;4.10;;
23722;SDS011;12042;52.136;5.584;2023-03-01T15:51:30;5.20;;;4.45;;
23722;SDS011;12042;52.136;5.584;2023-03-01T15:54:04;7.35;;;4.40;;
23722;SDS011;12042;52.136;5.584;2023-03-01T15:56:32;4.68;;;4.22;;
23722;SDS011;12042;52.136;5.584;2023-03-01T15:58:59;4.85;;;4.38;;
23722;SDS011;12042;52.136;5.584;2023-03-01T16:01:27;8.02;;;5.13;;
23722;SDS011;12042;52.136;5.584;2023-03-01T16:03:53;6.10;;;4.60;;
23722;SDS011;12042;52.136;5.584;2023-03-01T16:06:19;4.65;;;4.25;;
23722;SDS011;12042;52.136;5.584;2023-03-01T16:08:44;5.05;;;4.38;;
23722;SDS011;12042;52.136;5.584;2023-03-01T16:11:13;4.43;;;4.00;;
23722;SDS011;12042;52.136;5.584;2023-03-01T16:13:43;4.80;;;4.30;;
23722;SDS011;12042;52.136;5.584;2023-03-01T16:16:11;6.38;;;4.25;;
23722;SDS011;12042;52.136;5.584;2023-03-01T16:18:39;8.55;;;5.10;;
23722;SDS011;12042;52.136;5.584;2023-03-01T16:21:05;6.25;;;4.63;;
23722;SDS011;12042;52.136;5.584;2023-03-01T16:23:31;4.85;;;4.40;;
23722;SDS011;12042;52.136;5.584;2023-03-01T16:26:00;6.82;;;4.75;;
23722;SDS011;12042;52.136;5.584;2023-03-01T16:28:26;5.18;;;4.35;;
23722;SDS011;12042;52.136;5.584;2023-03-01T16:30:51;7.25;;;5.22;;
23722;SDS011;12042;52.136;5.584;2023-03-01T16:33:17;5.35;;;4.90;;
23722;SDS011;12042;52.136;5.584;2023-03-01T16:35:46;10.63;;;4.45;;
23722;SDS011;12042;52.136;5.584;2023-03-01T16:38:11;5.72;;;5.10;;
23722;SDS011;12042;52.136;5.584;2023-03-01T16:40:37;8.10;;;4.97;;
23722;SDS011;12042;52.136;5.584;2023-03-01T16:43:03;5.40;;;4.88;;
23722;SDS011;12042;52.136;5.584;2023-03-01T16:45:32;8.70;;;5.40;;
23722;SDS011;12042;52.136;5.584;2023-03-01T16:48:02;5.78;;;5.07;;
23722;SDS011;12042;52.136;5.584;2023-03-01T16:50:28;9.48;;;5.30;;
23722;SDS011;12042;52.136;5.584;2023-03-01T16:52:54;8.85;;;4.85;;
23722;SDS011;12042;52.136;5.584;2023-03-01T16:55:19;12.18;;;6.15;;
23722;SDS011;12042;52.136;5.584;2023-03-01T16:57:45;8.18;;;5.15;;
23722;SDS011;12042;52.136;5.584;2023-03-01T17:00:11;6.60;;;4.95;;
23722;SDS011;12042;52.136;5.584;2023-03-01T17:02:38;7.03;;;5.05;;
23722;SDS011;12042;52.136;5.584;2023-03-01T17:05:06;5.13;;;4.68;;
23722;SDS011;12042;52.136;5.584;2023-03-01T17:07:33;6.00;;;5.07;;
23722;SDS011;12042;52.136;5.584;2023-03-01T17:10:02;7.78;;;5.13;;
23722;SDS011;12042;52.136;5.584;2023-03-01T17:12:30;7.32;;;5.15;;
23722;SDS011;12042;52.136;5.584;2023-03-01T17:14:57;5.85;;;5.03;;
23722;SDS011;12042;52.136;5.584;2023-03-01T17:17:22;8.23;;;5.20;;
23722;SDS011;12042;52.136;5.584;2023-03-01T17:19:48;9.40;;;5.57;;
23722;SDS011;12042;52.136;5.584;2023-03-01T17:22:13;7.90;;;5.32;;
23722;SDS011;12042;52.136;5.584;2023-03-01T17:24:40;7.03;;;5.82;;
23722;SDS011;12042;52.136;5.584;2023-03-01T17:27:06;6.20;;;5.60;;
23722;SDS011;12042;52.136;5.584;2023-03-01T17:29:32;12.10;;;5.90;;
23722;SDS011;12042;52.136;5.584;2023-03-01T17:31:58;5.50;;;4.88;;
23722;SDS011;12042;52.136;5.584;2023-03-01T17:34:24;9.48;;;4.78;;
23722;SDS011;12042;52.136;5.584;2023-03-01T17:36:50;5.57;;;5.05;;
23722;SDS011;12042;52.136;5.584;2023-03-01T17:39:16;8.43;;;5.25;;
23722;SDS011;12042;52.136;5.584;2023-03-01T17:41:44;8.52;;;5.43;;
23722;SDS011;12042;52.136;5.584;2023-03-01T17:44:10;9.68;;;5.85;;
23722;SDS011;12042;52.136;5.584;2023-03-01T17:46:36;9.10;;;6.30;;
23722;SDS011;12042;52.136;5.584;2023-03-01T17:49:01;9.50;;;5.82;;
23722;SDS011;12042;52.136;5.584;2023-03-01T17:51:27;9.27;;;5.90;;
23722;SDS011;12042;52.136;5.584;2023-03-01T17:53:53;10.98;;;6.18;;
23722;SDS011;12042;52.136;5.584;2023-03-01T17:56:18;9.07;;;5.60;;
23722;SDS011;12042;52.136;5.584;2023-03-01T17:58:44;8.43;;;5.90;;
23722;SDS011;12042;52.136;5.584;2023-03-01T18:01:15;9.75;;;6.07;;
23722;SDS011;12042;52.136;5.584;2023-03-01T18:03:42;7.30;;;5.25;;
23722;SDS011;12042;52.136;5.584;2023-03-01T18:08:37;14.50;;;6.30;;
23722;SDS011;12042;52.136;5.584;2023-03-01T18:11:02;9.27;;;5.60;;
23722;SDS011;12042;52.136;5.584;2023-03-01T18:13:28;8.25;;;6.03;;
23722;SDS011;12042;52.136;5.584;2023-03-01T18:15:54;7.20;;;6.22;;
23722;SDS011;12042;52.136;5.584;2023-03-01T18:18:25;10.38;;;6.35;;
23722;SDS011;12042;52.136;5.584;2023-03-01T18:20:54;11.45;;;6.18;;
23722;SDS011;12042;52.136;5.584;2023-03-01T18:23:21;13.80;;;7.05;;
23722;SDS011;12042;52.136;5.584;2023-03-01T18:25:46;10.25;;;7.28;;
23722;SDS011;12042;52.136;5.584;2023-03-01T18:28:12;11.13;;;6.20;;
23722;SDS011;12042;52.136;5.584;2023-03-01T18:30:38;11.93;;;7.28;;
23722;SDS011;12042;52.136;5.584;2023-03-01T18:33:03;11.05;;;6.63;;
23722;SDS011;12042;52.136;5.584;2023-03-01T18:35:29;14.90;;;6.50;;
23722;SDS011;12042;52.136;5.584;2023-03-01T18:37:55;13.20;;;6.70;;
23722;SDS011;12042;52.136;5.584;2023-03-01T18:40:21;10.77;;;6.30;;
23722;SDS011;12042;52.136;5.584;2023-03-01T18:42:47;9.38;;;7.10;;
23722;SDS011;12042;52.136;5.584;2023-03-01T18:45:12;14.18;;;8.70;;
23722;SDS011;12042;52.136;5.584;2023-03-01T18:47:41;11.50;;;7.55;;
23722;SDS011;12042;52.136;5.584;2023-03-01T18:50:06;9.13;;;6.70;;
23722;SDS011;12042;52.136;5.584;2023-03-01T18:52:32;11.80;;;6.55;;
23722;SDS011;12042;52.136;5.584;2023-03-01T18:54:58;13.00;;;6.82;;
23722;SDS011;12042;52.136;5.584;2023-03-01T18:57:24;7.57;;;6.78;;
23722;SDS011;12042;52.136;5.584;2023-03-01T18:59:49;6.65;;;6.05;;
23722;SDS011;12042;52.136;5.584;2023-03-01T19:02:15;8.50;;;5.95;;
23722;SDS011;12042;52.136;5.584;2023-03-01T19:04:41;7.20;;;5.50;;
23722;SDS011;12042;52.136;5.584;2023-03-01T19:07:08;6.85;;;6.03;;
23722;SDS011;12042;52.136;5.584;2023-03-01T19:09:34;7.85;;;6.03;;
23722;SDS011;12042;52.136;5.584;2023-03-01T19:11:59;9.00;;;5.75;;
23722;SDS011;12042;52.136;5.584;2023-03-01T19:14:27;6.72;;;6.03;;
23722;SDS011;12042;52.136;5.584;2023-03-01T19:16:53;6.85;;;6.00;;
23722;SDS011;12042;52.136;5.584;2023-03-01T19:19:18;7.30;;;6.18;;
23722;SDS011;12042;52.136;5.584;2023-03-01T19:21:44;7.03;;;5.45;;
23722;SDS011;12042;52.136;5.584;2023-03-01T19:24:09;5.78;;;5.20;;
23722;SDS011;12042;52.136;5.584;2023-03-01T19:26:36;7.50;;;5.60;;
23722;SDS011;12042;52.136;5.584;2023-03-01T19:29:05;8.32;;;5.72;;
23722;SDS011;12042;52.136;5.584;2023-03-01T19:31:32;6.95;;;5.93;;
23722;SDS011;12042;52.136;5.584;2023-03-01T19:33:58;8.60;;;6.13;;
23722;SDS011;12042;52.136;5.584;2023-03-01T19:36:23;6.63;;;5.88;;
23722;SDS011;12042;52.136;5.584;2023-03-01T19:38:57;8.45;;;5.90;;
23722;SDS011;12042;52.136;5.584;2023-03-01T19:41:28;6.10;;;5.55;;
23722;SDS011;12042;52.136;5.584;2023-03-01T19:43:54;6.65;;;5.50;;
23722;SDS011;12042;52.136;5.584;2023-03-01T19:46:21;6.30;;;5.70;;
23722;SDS011;12042;52.136;5.584;2023-03-01T19:48:47;7.88;;;6.30;;
23722;SDS011;12042;52.136;5.584;2023-03-01T19:51:13;7.05;;;6.35;;
23722;SDS011;12042;52.136;5.584;2023-03-01T19:53:39;9.15;;;6.60;;
23722;SDS011;12042;52.136;5.584;2023-03-01T19:56:05;6.88;;;6.15;;
23722;SDS011;12042;52.136;5.584;2023-03-01T19:58:31;12.60;;;6.60;;
23722;SDS011;12042;52.136;5.584;2023-03-01T20:00:57;8.50;;;7.10;;
23722;SDS011;12042;52.136;5.584;2023-03-01T20:03:28;10.75;;;6.70;;
23722;SDS011;12042;52.136;5.584;2023-03-01T20:05:55;9.93;;;6.90;;
23722;SDS011;12042;52.136;5.584;2023-03-01T20:08:22;8.30;;;6.85;;
23722;SDS011;12042;52.136;5.584;2023-03-01T20:10:49;10.07;;;6.90;;
23722;SDS011;12042;52.136;5.584;2023-03-01T20:13:14;8.63;;;7.10;;
23722;SDS011;12042;52.136;5.584;2023-03-01T20:15:41;11.13;;;6.97;;
23722;SDS011;12042;52.136;5.584;2023-03-01T20:18:07;8.90;;;7.28;;
23722;SDS011;12042;52.136;5.584;2023-03-01T20:20:35;16.52;;;7.38;;
23722;SDS011;12042;52.136;5.584;2023-03-01T20:23:00;10.10;;;6.93;;
23722;SDS011;12042;52.136;5.584;2023-03-01T20:25:26;10.90;;;7.50;;
23722;SDS011;12042;52.136;5.584;2023-03-01T20:27:52;13.05;;;8.73;;
23722;SDS011;12042;52.136;5.584;2023-03-01T20:30:17;13.13;;;8.35;;
23722;SDS011;12042;52.136;5.584;2023-03-01T20:32:43;12.95;;;8.32;;
23722;SDS011;12042;52.136;5.584;2023-03-01T20:35:09;12.93;;;8.02;;
23722;SDS011;12042;52.136;5.584;2023-03-01T20:37:35;11.38;;;8.38;;
23722;SDS011;12042;52.136;5.584;2023-03-01T20:40:01;13.48;;;8.73;;
23722;SDS011;12042;52.136;5.584;2023-03-01T20:42:27;11.82;;;8.43;;
23722;SDS011;12042;52.136;5.584;2023-03-01T20:44:53;13.90;;;8.88;;
23722;SDS011;12042;52.136;5.584;2023-03-01T20:47:19;14.43;;;8.98;;
23722;SDS011;12042;52.136;5.584;2023-03-01T20:49:45;12.38;;;8.68;;
23722;SDS011;12042;52.136;5.584;2023-03-01T20:52:13;17.58;;;9.50;;
23722;SDS011;12042;52.136;5.584;2023-03-01T20:54:39;12.43;;;8.45;;
23722;SDS011;12042;52.136;5.584;2023-03-01T20:57:05;12.38;;;8.77;;
23722;SDS011;12042;52.136;5.584;2023-03-01T20:59:30;13.07;;;8.68;;
23722;SDS011;12042;52.136;5.584;2023-03-01T21:01:56;12.98;;;8.43;;
23722;SDS011;12042;52.136;5.584;2023-03-01T21:04:21;11.00;;;8.75;;
23722;SDS011;12042;52.136;5.584;2023-03-01T21:06:47;11.90;;;8.88;;
23722;SDS011;12042;52.136;5.584;2023-03-01T21:09:13;13.15;;;9.57;;
23722;SDS011;12042;52.136;5.584;2023-03-01T21:11:38;10.82;;;8.30;;
23722;SDS011;12042;52.136;5.584;2023-03-01T21:14:04;14.57;;;8.73;;
23722;SDS011;12042;52.136;5.584;2023-03-01T21:16:30;12.63;;;8.38;;
23722;SDS011;12042;52.136;5.584;2023-03-01T21:18:59;10.73;;;8.57;;
23722;SDS011;12042;52.136;5.584;2023-03-01T21:21:27;11.95;;;8.52;;
23722;SDS011;12042;52.136;5.584;2023-03-01T21:23:53;15.38;;;8.35;;
23722;SDS011;12042;52.136;5.584;2023-03-01T21:26:23;10.77;;;7.90;;
23722;SDS011;12042;52.136;5.584;2023-03-01T21:28:52;12.55;;;9.02;;
23722;SDS011;12042;52.136;5.584;2023-03-01T21:31:21;11.23;;;8.23;;
23722;SDS011;12042;52.136;5.584;2023-03-01T21:33:49;12.95;;;8.40;;
23722;SDS011;12042;52.136;5.584;2023-03-01T21:36:16;13.68;;;8.88;;
23722;SDS011;12042;52.136;5.584;2023-03-01T21:38:44;12.98;;;8.70;;
23722;SDS011;12042;52.136;5.584;2023-03-01T21:41:13;13.55;;;8.57;;
23722;SDS011;12042;52.136;5.584;2023-03-01T21:43:42;13.65;;;9.20;;
23722;SDS011;12042;52.136;5.584;2023-03-01T21:46:09;12.68;;;8.82;;
23722;SDS011;12042;52.136;5.584;2023-03-01T21:48:38;13.85;;;9.57;;
23722;SDS011;12042;52.136;5.584;2023-03-01T21:51:05;12.52;;;8.65;;
23722;SDS011;12042;52.136;5.584;2023-03-01T21:53:32;15.18;;;10.00;;
23722;SDS011;12042;52.136;5.584;2023-03-01T21:56:00;12.85;;;9.20;;
23722;SDS011;12042;52.136;5.584;2023-03-01T21:58:35;13.75;;;9.00;;
23722;SDS011;12042;52.136;5.584;2023-03-01T22:01:11;14.18;;;9.43;;
23722;SDS011;12042;52.136;5.584;2023-03-01T22:03:39;15.18;;;9.27;;
23722;SDS011;12042;52.136;5.584;2023-03-01T22:06:14;13.88;;;9.73;;
23722;SDS011;12042;52.136;5.584;2023-03-01T22:08:48;15.90;;;10.10;;
23722;SDS011;12042;52.136;5.584;2023-03-01T22:11:16;18.02;;;10.45;;
23722;SDS011;12042;52.136;5.584;2023-03-01T22:13:43;17.45;;;11.50;;
23722;SDS011;12042;52.136;5.584;2023-03-01T22:16:14;16.48;;;10.85;;
23722;SDS011;12042;52.136;5.584;2023-03-01T22:18:40;15.00;;;10.68;;
23722;SDS011;12042;52.136;5.584;2023-03-01T22:21:06;16.38;;;11.23;;
23722;SDS011;12042;52.136;5.584;2023-03-01T22:23:33;19.13;;;12.13;;
23722;SDS011;12042;52.136;5.584;2023-03-01T22:26:01;18.10;;;12.02;;
